sensor_id;sensor_type;location;lat;lon;timestamp;temperature;humidity
74511;DHT22;62991;50.040;18.400;2023-10-19T00:01:42;8.80;60.30
74511;DHT22;62991;50.040;18.400;2023-10-19T00:04:43;8.80;60.60
74511;DHT22;62991;50.040;18.400;2023-10-19T00:07:43;8.70;60.90
74511;DHT22;62991;50.040;18.400;2023-10-19T00:10:49;8.60;61.00
74511;DHT22;62991;50.040;18.400;2023-10-19T00:14:16;8.60;61.00
74511;DHT22;62991;50.040;18.400;2023-10-19T00:17:17;8.60;61.10
74511;DHT22;62991;50.040;18.400;2023-10-19T00:20:21;8.60;60.60
74511;DHT22;62991;50.040;18.400;2023-10-19T00:23:36;8.50;60.50
74511;DHT22;62991;50.040;18.400;2023-10-19T00:26:37;8.60;60.50
74511;DHT22;62991;50.040;18.400;2023-10-19T00:29:38;8.50;60.30
74511;DHT22;62991;50.040;18.400;2023-10-19T00:32:43;8.60;60.40
74511;DHT22;62991;50.040;18.400;2023-10-19T00:35:44;8.50;60.20
74511;DHT22;62991;50.040;18.400;2023-10-19T00:38:48;8.50;60.40
74511;DHT22;62991;50.040;18.400;2023-10-19T00:41:56;8.60;60.40
74511;DHT22;62991;50.040;18.400;2023-10-19T00:44:58;8.40;60.80
74511;DHT22;62991;50.040;18.400;2023-10-19T00:48:08;8.50;60.70
74511;DHT22;62991;50.040;18.400;2023-10-19T00:51:14;8.50;60.50
74511;DHT22;62991;50.040;18.400;2023-10-19T00:54:34;8.40;60.70
74511;DHT22;62991;50.040;18.400;2023-10-19T00:57:42;8.40;60.40
74511;DHT22;62991;50.040;18.400;2023-10-19T01:00:49;8.40;60.40
74511;DHT22;62991;50.040;18.400;2023-10-19T01:03:50;8.30;60.20
74511;DHT22;62991;50.040;18.400;2023-10-19T01:06:56;8.30;60.10
74511;DHT22;62991;50.040;18.400;2023-10-19T01:10:13;8.30;60.20
74511;DHT22;62991;50.040;18.400;2023-10-19T01:13:20;8.30;60.10
74511;DHT22;62991;50.040;18.400;2023-10-19T01:16:27;8.30;59.80
74511;DHT22;62991;50.040;18.400;2023-10-19T01:19:28;8.30;59.70
74511;DHT22;62991;50.040;18.400;2023-10-19T01:22:28;8.30;60.00
74511;DHT22;62991;50.040;18.400;2023-10-19T01:25:30;8.30;59.80
74511;DHT22;62991;50.040;18.400;2023-10-19T01:28:38;8.20;59.70
74511;DHT22;62991;50.040;18.400;2023-10-19T01:31:48;8.20;59.40
74511;DHT22;62991;50.040;18.400;2023-10-19T01:35:12;8.20;60.20
74511;DHT22;62991;50.040;18.400;2023-10-19T01:38:13;8.30;59.90
74511;DHT22;62991;50.040;18.400;2023-10-19T01:41:14;8.20;59.60
74511;DHT22;62991;50.040;18.400;2023-10-19T01:44:17;8.10;60.20
74511;DHT22;62991;50.040;18.400;2023-10-19T01:47:21;8.10;60.00
74511;DHT22;62991;50.040;18.400;2023-10-19T01:50:22;8.10;60.00
74511;DHT22;62991;50.040;18.400;2023-10-19T01:53:23;8.10;60.00
74511;DHT22;62991;50.040;18.400;2023-10-19T01:56:26;8.00;60.10
74511;DHT22;62991;50.040;18.400;2023-10-19T01:59:27;7.90;60.50
74511;DHT22;62991;50.040;18.400;2023-10-19T02:02:29;8.00;60.00
74511;DHT22;62991;50.040;18.400;2023-10-19T02:05:33;8.00;59.60
74511;DHT22;62991;50.040;18.400;2023-10-19T02:08:39;8.00;59.40
74511;DHT22;62991;50.040;18.400;2023-10-19T02:11:40;7.80;59.70
74511;DHT22;62991;50.040;18.400;2023-10-19T02:14:46;7.80;59.90
74511;DHT22;62991;50.040;18.400;2023-10-19T02:17:47;7.80;60.00
74511;DHT22;62991;50.040;18.400;2023-10-19T02:20:47;7.70;60.20
74511;DHT22;62991;50.040;18.400;2023-10-19T02:23:49;7.60;60.70
74511;DHT22;62991;50.040;18.400;2023-10-19T02:26:54;7.60;60.50
74511;DHT22;62991;50.040;18.400;2023-10-19T02:29:56;7.70;60.60
74511;DHT22;62991;50.040;18.400;2023-10-19T02:32:56;7.70;60.10
74511;DHT22;62991;50.040;18.400;2023-10-19T02:35:57;7.80;60.00
74511;DHT22;62991;50.040;18.400;2023-10-19T02:39:02;7.80;59.90
74511;DHT22;62991;50.040;18.400;2023-10-19T02:42:09;7.90;59.70
74511;DHT22;62991;50.040;18.400;2023-10-19T02:45:10;7.90;59.80
74511;DHT22;62991;50.040;18.400;2023-10-19T02:48:11;8.00;59.60
74511;DHT22;62991;50.040;18.400;2023-10-19T02:51:13;8.10;59.50
74511;DHT22;62991;50.040;18.400;2023-10-19T02:54:22;8.10;59.40
74511;DHT22;62991;50.040;18.400;2023-10-19T02:57:24;8.00;59.40
74511;DHT22;62991;50.040;18.400;2023-10-19T03:00:25;8.10;59.30
74511;DHT22;62991;50.040;18.400;2023-10-19T03:03:33;8.10;59.20
74511;DHT22;62991;50.040;18.400;2023-10-19T03:06:33;8.10;59.40
74511;DHT22;62991;50.040;18.400;2023-10-19T03:09:34;8.10;59.10
74511;DHT22;62991;50.040;18.400;2023-10-19T03:12:37;8.20;59.10
74511;DHT22;62991;50.040;18.400;2023-10-19T03:15:38;8.30;58.80
74511;DHT22;62991;50.040;18.400;2023-10-19T03:18:43;8.30;58.80
74511;DHT22;62991;50.040;18.400;2023-10-19T03:21:43;8.30;58.80
74511;DHT22;62991;50.040;18.400;2023-10-19T03:24:44;8.40;58.60
74511;DHT22;62991;50.040;18.400;2023-10-19T03:27:45;8.40;58.50
74511;DHT22;62991;50.040;18.400;2023-10-19T03:30:46;8.40;58.50
74511;DHT22;62991;50.040;18.400;2023-10-19T03:33:47;8.50;58.50
74511;DHT22;62991;50.040;18.400;2023-10-19T03:36:54;8.60;58.20
74511;DHT22;62991;50.040;18.400;2023-10-19T03:39:55;8.60;58.20
74511;DHT22;62991;50.040;18.400;2023-10-19T03:42:56;8.60;58.20
74511;DHT22;62991;50.040;18.400;2023-10-19T03:45:57;8.60;58.40
74511;DHT22;62991;50.040;18.400;2023-10-19T03:48:59;8.70;58.00
74511;DHT22;62991;50.040;18.400;2023-10-19T03:52:08;8.70;57.80
74511;DHT22;62991;50.040;18.400;2023-10-19T03:55:09;8.80;57.50
74511;DHT22;62991;50.040;18.400;2023-10-19T03:58:16;8.80;57.80
74511;DHT22;62991;50.040;18.400;2023-10-19T04:01:17;8.90;57.50
74511;DHT22;62991;50.040;18.400;2023-10-19T04:04:20;8.80;57.40
74511;DHT22;62991;50.040;18.400;2023-10-19T04:07:21;8.80;57.50
74511;DHT22;62991;50.040;18.400;2023-10-19T04:10:22;8.90;57.30
74511;DHT22;62991;50.040;18.400;2023-10-19T04:13:44;8.90;57.40
74511;DHT22;62991;50.040;18.400;2023-10-19T04:16:45;9.00;57.00
74511;DHT22;62991;50.040;18.400;2023-10-19T04:19:49;9.00;56.90
74511;DHT22;62991;50.040;18.400;2023-10-19T04:22:55;9.00;57.00
74511;DHT22;62991;50.040;18.400;2023-10-19T04:26:06;9.00;57.20
74511;DHT22;62991;50.040;18.400;2023-10-19T04:29:11;9.00;57.30
74511;DHT22;62991;50.040;18.400;2023-10-19T04:32:12;9.10;56.90
74511;DHT22;62991;50.040;18.400;2023-10-19T04:35:15;9.00;57.30
74511;DHT22;62991;50.040;18.400;2023-10-19T04:38:23;9.00;57.20
74511;DHT22;62991;50.040;18.400;2023-10-19T04:41:23;9.00;57.30
74511;DHT22;62991;50.040;18.400;2023-10-19T04:44:24;9.10;57.10
74511;DHT22;62991;50.040;18.400;2023-10-19T04:47:25;9.10;57.10
74511;DHT22;62991;50.040;18.400;2023-10-19T04:50:26;9.10;57.30
74511;DHT22;62991;50.040;18.400;2023-10-19T04:53:26;9.10;57.30
74511;DHT22;62991;50.040;18.400;2023-10-19T04:56:27;9.20;57.30
74511;DHT22;62991;50.040;18.400;2023-10-19T04:59:28;9.20;57.00
74511;DHT22;62991;50.040;18.400;2023-10-19T05:02:33;9.20;57.20
74511;DHT22;62991;50.040;18.400;2023-10-19T05:05:34;9.10;57.30
74511;DHT22;62991;50.040;18.400;2023-10-19T05:08:36;9.20;57.20
74511;DHT22;62991;50.040;18.400;2023-10-19T05:11:37;9.20;57.40
74511;DHT22;62991;50.040;18.400;2023-10-19T05:14:41;9.20;57.40
74511;DHT22;62991;50.040;18.400;2023-10-19T05:17:42;9.20;57.40
74511;DHT22;62991;50.040;18.400;2023-10-19T05:20:42;9.30;57.80
74511;DHT22;62991;50.040;18.400;2023-10-19T05:23:43;9.30;57.40
74511;DHT22;62991;50.040;18.400;2023-10-19T05:26:44;9.30;57.50
74511;DHT22;62991;50.040;18.400;2023-10-19T05:29:46;9.30;57.50
74511;DHT22;62991;50.040;18.400;2023-10-19T05:32:48;9.30;57.80
74511;DHT22;62991;50.040;18.400;2023-10-19T05:35:53;9.30;57.60
74511;DHT22;62991;50.040;18.400;2023-10-19T05:38:53;9.50;57.80
74511;DHT22;62991;50.040;18.400;2023-10-19T05:41:57;9.50;57.50
74511;DHT22;62991;50.040;18.400;2023-10-19T05:45:01;9.50;57.60
74511;DHT22;62991;50.040;18.400;2023-10-19T05:48:04;9.60;57.40
74511;DHT22;62991;50.040;18.400;2023-10-19T05:51:06;9.60;57.40
74511;DHT22;62991;50.040;18.400;2023-10-19T05:54:07;9.60;57.60
74511;DHT22;62991;50.040;18.400;2023-10-19T05:57:09;9.70;57.10
74511;DHT22;62991;50.040;18.400;2023-10-19T06:00:11;9.80;57.10
74511;DHT22;62991;50.040;18.400;2023-10-19T06:03:14;9.80;57.00
74511;DHT22;62991;50.040;18.400;2023-10-19T06:06:15;9.90;56.90
74511;DHT22;62991;50.040;18.400;2023-10-19T06:09:16;10.00;57.00
74511;DHT22;62991;50.040;18.400;2023-10-19T06:12:17;10.00;57.10
74511;DHT22;62991;50.040;18.400;2023-10-19T06:15:19;10.10;56.60
74511;DHT22;62991;50.040;18.400;2023-10-19T06:18:29;10.10;56.70
74511;DHT22;62991;50.040;18.400;2023-10-19T06:21:30;10.10;56.80
74511;DHT22;62991;50.040;18.400;2023-10-19T06:24:31;10.20;56.50
74511;DHT22;62991;50.040;18.400;2023-10-19T06:27:32;10.20;56.20
74511;DHT22;62991;50.040;18.400;2023-10-19T06:30:34;10.20;56.40
74511;DHT22;62991;50.040;18.400;2023-10-19T06:33:35;10.30;56.70
74511;DHT22;62991;50.040;18.400;2023-10-19T06:36:37;10.30;56.30
74511;DHT22;62991;50.040;18.400;2023-10-19T06:39:38;10.40;56.40
74511;DHT22;62991;50.040;18.400;2023-10-19T06:42:42;10.50;56.10
74511;DHT22;62991;50.040;18.400;2023-10-19T06:45:44;10.50;56.20
74511;DHT22;62991;50.040;18.400;2023-10-19T06:48:45;10.50;56.50
74511;DHT22;62991;50.040;18.400;2023-10-19T06:51:47;10.50;56.10
74511;DHT22;62991;50.040;18.400;2023-10-19T06:54:48;10.60;56.20
74511;DHT22;62991;50.040;18.400;2023-10-19T06:57:50;10.70;56.70
74511;DHT22;62991;50.040;18.400;2023-10-19T07:00:52;10.80;56.10
74511;DHT22;62991;50.040;18.400;2023-10-19T07:04:08;10.90;56.40
74511;DHT22;62991;50.040;18.400;2023-10-19T07:07:09;11.00;56.00
74511;DHT22;62991;50.040;18.400;2023-10-19T07:10:11;10.90;56.30
74511;DHT22;62991;50.040;18.400;2023-10-19T07:13:13;11.00;56.20
74511;DHT22;62991;50.040;18.400;2023-10-19T07:16:13;11.10;56.40
74511;DHT22;62991;50.040;18.400;2023-10-19T07:19:14;11.10;56.20
74511;DHT22;62991;50.040;18.400;2023-10-19T07:22:15;11.20;56.40
74511;DHT22;62991;50.040;18.400;2023-10-19T07:25:17;11.20;56.20
74511;DHT22;62991;50.040;18.400;2023-10-19T07:28:22;11.20;56.60
74511;DHT22;62991;50.040;18.400;2023-10-19T07:31:25;11.30;56.40
74511;DHT22;62991;50.040;18.400;2023-10-19T07:34:31;11.40;56.50
74511;DHT22;62991;50.040;18.400;2023-10-19T07:37:33;11.40;56.30
74511;DHT22;62991;50.040;18.400;2023-10-19T07:40:35;11.50;56.30
74511;DHT22;62991;50.040;18.400;2023-10-19T07:43:36;11.50;56.30
74511;DHT22;62991;50.040;18.400;2023-10-19T07:46:37;11.50;56.30
74511;DHT22;62991;50.040;18.400;2023-10-19T07:49:38;11.40;56.70
74511;DHT22;62991;50.040;18.400;2023-10-19T07:52:39;11.40;56.60
74511;DHT22;62991;50.040;18.400;2023-10-19T07:55:39;11.40;56.80
74511;DHT22;62991;50.040;18.400;2023-10-19T07:58:40;11.50;57.00
74511;DHT22;62991;50.040;18.400;2023-10-19T08:01:42;11.50;57.20
74511;DHT22;62991;50.040;18.400;2023-10-19T08:04:43;11.40;57.60
74511;DHT22;62991;50.040;18.400;2023-10-19T08:07:44;11.50;57.50
74511;DHT22;62991;50.040;18.400;2023-10-19T08:10:47;11.40;57.60
74511;DHT22;62991;50.040;18.400;2023-10-19T08:13:48;11.40;57.80
74511;DHT22;62991;50.040;18.400;2023-10-19T08:16:49;11.50;57.70
74511;DHT22;62991;50.040;18.400;2023-10-19T08:19:51;11.50;58.10
74511;DHT22;62991;50.040;18.400;2023-10-19T08:22:53;11.60;58.60
74511;DHT22;62991;50.040;18.400;2023-10-19T08:25:55;11.70;58.80
74511;DHT22;62991;50.040;18.400;2023-10-19T08:28:55;11.80;59.00
74511;DHT22;62991;50.040;18.400;2023-10-19T08:31:57;11.80;59.40
74511;DHT22;62991;50.040;18.400;2023-10-19T08:34:59;11.80;58.90
74511;DHT22;62991;50.040;18.400;2023-10-19T08:38:01;11.90;59.20
74511;DHT22;62991;50.040;18.400;2023-10-19T08:41:04;12.00;58.90
74511;DHT22;62991;50.040;18.400;2023-10-19T08:44:06;11.90;59.10
74511;DHT22;62991;50.040;18.400;2023-10-19T08:47:16;12.00;58.90
74511;DHT22;62991;50.040;18.400;2023-10-19T08:50:16;12.10;58.80
74511;DHT22;62991;50.040;18.400;2023-10-19T08:53:18;12.10;58.90
74511;DHT22;62991;50.040;18.400;2023-10-19T08:56:20;12.20;58.80
74511;DHT22;62991;50.040;18.400;2023-10-19T08:59:24;12.30;58.50
74511;DHT22;62991;50.040;18.400;2023-10-19T09:02:24;12.40;58.50
74511;DHT22;62991;50.040;18.400;2023-10-19T09:05:25;12.40;58.50
74511;DHT22;62991;50.040;18.400;2023-10-19T09:08:27;12.50;58.60
74511;DHT22;62991;50.040;18.400;2023-10-19T09:11:38;12.40;58.80
74511;DHT22;62991;50.040;18.400;2023-10-19T09:14:39;12.50;58.70
74511;DHT22;62991;50.040;18.400;2023-10-19T09:17:43;12.60;58.50
74511;DHT22;62991;50.040;18.400;2023-10-19T09:20:47;12.60;58.40
74511;DHT22;62991;50.040;18.400;2023-10-19T09:23:56;12.70;58.60
74511;DHT22;62991;50.040;18.400;2023-10-19T09:26:57;12.70;58.90
74511;DHT22;62991;50.040;18.400;2023-10-19T09:29:58;12.70;58.90
74511;DHT22;62991;50.040;18.400;2023-10-19T09:32:59;12.60;58.80
74511;DHT22;62991;50.040;18.400;2023-10-19T09:36:04;12.70;58.90
74511;DHT22;62991;50.040;18.400;2023-10-19T09:39:08;12.70;59.30
74511;DHT22;62991;50.040;18.400;2023-10-19T09:42:14;12.70;59.30
74511;DHT22;62991;50.040;18.400;2023-10-19T09:45:19;12.80;59.50
74511;DHT22;62991;50.040;18.400;2023-10-19T09:48:21;12.80;59.50
74511;DHT22;62991;50.040;18.400;2023-10-19T09:51:22;12.90;60.10
74511;DHT22;62991;50.040;18.400;2023-10-19T09:54:47;12.90;60.30
74511;DHT22;62991;50.040;18.400;2023-10-19T09:58:00;13.00;60.50
74511;DHT22;62991;50.040;18.400;2023-10-19T10:01:03;13.00;60.70
74511;DHT22;62991;50.040;18.400;2023-10-19T10:04:03;13.00;61.10
74511;DHT22;62991;50.040;18.400;2023-10-19T10:07:07;13.10;60.90
74511;DHT22;62991;50.040;18.400;2023-10-19T10:10:09;13.10;61.30
74511;DHT22;62991;50.040;18.400;2023-10-19T10:16:34;13.30;61.40
74511;DHT22;62991;50.040;18.400;2023-10-19T10:19:34;13.40;61.60
74511;DHT22;62991;50.040;18.400;2023-10-19T10:22:35;13.40;61.60
74511;DHT22;62991;50.040;18.400;2023-10-19T10:25:36;13.40;61.80
74511;DHT22;62991;50.040;18.400;2023-10-19T10:28:38;13.30;62.60
74511;DHT22;62991;50.040;18.400;2023-10-19T10:31:48;13.40;62.70
74511;DHT22;62991;50.040;18.400;2023-10-19T10:34:49;13.40;62.40
74511;DHT22;62991;50.040;18.400;2023-10-19T10:37:53;13.50;62.20
74511;DHT22;62991;50.040;18.400;2023-10-19T10:40:57;13.60;62.40
74511;DHT22;62991;50.040;18.400;2023-10-19T10:43:58;13.70;62.80
74511;DHT22;62991;50.040;18.400;2023-10-19T10:46:59;13.80;62.60
74511;DHT22;62991;50.040;18.400;2023-10-19T10:50:00;13.80;62.70
74511;DHT22;62991;50.040;18.400;2023-10-19T10:53:01;13.70;63.30
74511;DHT22;62991;50.040;18.400;2023-10-19T10:56:03;13.70;63.10
74511;DHT22;62991;50.040;18.400;2023-10-19T10:59:12;13.70;63.20
74511;DHT22;62991;50.040;18.400;2023-10-19T11:02:19;13.90;63.20
74511;DHT22;62991;50.040;18.400;2023-10-19T11:05:22;13.90;63.00
74511;DHT22;62991;50.040;18.400;2023-10-19T11:08:24;14.00;62.70
74511;DHT22;62991;50.040;18.400;2023-10-19T11:11:25;14.10;62.60
74511;DHT22;62991;50.040;18.400;2023-10-19T11:14:26;14.10;62.80
74511;DHT22;62991;50.040;18.400;2023-10-19T11:17:31;13.90;63.50
74511;DHT22;62991;50.040;18.400;2023-10-19T11:20:31;13.80;64.20
74511;DHT22;62991;50.040;18.400;2023-10-19T11:23:39;13.70;64.50
74511;DHT22;62991;50.040;18.400;2023-10-19T11:26:41;13.70;65.30
74511;DHT22;62991;50.040;18.400;2023-10-19T11:29:54;13.70;64.90
74511;DHT22;62991;50.040;18.400;2023-10-19T11:32:56;13.60;65.10
74511;DHT22;62991;50.040;18.400;2023-10-19T11:36:02;13.60;65.30
74511;DHT22;62991;50.040;18.400;2023-10-19T11:39:03;13.60;65.60
74511;DHT22;62991;50.040;18.400;2023-10-19T11:42:12;13.60;65.80
74511;DHT22;62991;50.040;18.400;2023-10-19T11:45:13;13.70;65.50
74511;DHT22;62991;50.040;18.400;2023-10-19T11:48:13;13.60;65.40
74511;DHT22;62991;50.040;18.400;2023-10-19T11:51:14;13.50;65.90
74511;DHT22;62991;50.040;18.400;2023-10-19T11:54:15;13.70;65.60
74511;DHT22;62991;50.040;18.400;2023-10-19T11:57:18;13.70;65.80
74511;DHT22;62991;50.040;18.400;2023-10-19T12:00:19;13.80;66.20
74511;DHT22;62991;50.040;18.400;2023-10-19T12:03:22;13.80;66.50
74511;DHT22;62991;50.040;18.400;2023-10-19T12:06:23;13.80;66.70
74511;DHT22;62991;50.040;18.400;2023-10-19T12:09:24;13.80;66.40
74511;DHT22;62991;50.040;18.400;2023-10-19T12:12:25;13.80;66.40
74511;DHT22;62991;50.040;18.400;2023-10-19T12:15:25;13.90;66.50
74511;DHT22;62991;50.040;18.400;2023-10-19T12:18:26;13.90;66.80
74511;DHT22;62991;50.040;18.400;2023-10-19T12:21:28;13.90;67.00
74511;DHT22;62991;50.040;18.400;2023-10-19T12:24:31;13.90;66.70
74511;DHT22;62991;50.040;18.400;2023-10-19T12:27:31;13.90;67.10
74511;DHT22;62991;50.040;18.400;2023-10-19T12:30:32;14.00;66.50
74511;DHT22;62991;50.040;18.400;2023-10-19T12:33:37;14.10;66.60
74511;DHT22;62991;50.040;18.400;2023-10-19T12:36:42;14.00;67.20
74511;DHT22;62991;50.040;18.400;2023-10-19T12:39:45;14.00;67.20
74511;DHT22;62991;50.040;18.400;2023-10-19T12:42:49;14.10;67.20
74511;DHT22;62991;50.040;18.400;2023-10-19T12:45:51;14.10;67.10
74511;DHT22;62991;50.040;18.400;2023-10-19T12:48:55;14.20;67.00
74511;DHT22;62991;50.040;18.400;2023-10-19T12:51:56;14.20;67.00
74511;DHT22;62991;50.040;18.400;2023-10-19T12:54:57;14.30;67.10
74511;DHT22;62991;50.040;18.400;2023-10-19T12:58:01;14.30;66.60
74511;DHT22;62991;50.040;18.400;2023-10-19T13:01:11;14.30;66.50
74511;DHT22;62991;50.040;18.400;2023-10-19T13:04:21;14.30;67.00
74511;DHT22;62991;50.040;18.400;2023-10-19T13:07:24;14.40;67.30
74511;DHT22;62991;50.040;18.400;2023-10-19T13:10:30;14.40;67.40
74511;DHT22;62991;50.040;18.400;2023-10-19T13:13:34;14.50;67.10
74511;DHT22;62991;50.040;18.400;2023-10-19T13:16:36;14.50;66.60
74511;DHT22;62991;50.040;18.400;2023-10-19T13:19:37;14.50;66.70
74511;DHT22;62991;50.040;18.400;2023-10-19T13:22:37;14.60;66.80
74511;DHT22;62991;50.040;18.400;2023-10-19T13:25:39;14.60;67.10
74511;DHT22;62991;50.040;18.400;2023-10-19T13:28:42;14.40;67.60
74511;DHT22;62991;50.040;18.400;2023-10-19T13:31:43;14.40;67.90
74511;DHT22;62991;50.040;18.400;2023-10-19T13:34:50;14.30;67.80
74511;DHT22;62991;50.040;18.400;2023-10-19T13:37:50;14.30;68.20
74511;DHT22;62991;50.040;18.400;2023-10-19T13:40:51;14.30;68.20
74511;DHT22;62991;50.040;18.400;2023-10-19T13:43:52;14.30;68.10
74511;DHT22;62991;50.040;18.400;2023-10-19T13:46:53;14.20;68.40
74511;DHT22;62991;50.040;18.400;2023-10-19T13:49:54;14.20;68.50
74511;DHT22;62991;50.040;18.400;2023-10-19T13:52:55;14.20;68.80
74511;DHT22;62991;50.040;18.400;2023-10-19T13:56:08;14.00;69.60
74511;DHT22;62991;50.040;18.400;2023-10-19T13:59:09;14.00;69.50
74511;DHT22;62991;50.040;18.400;2023-10-19T14:02:11;14.10;69.50
74511;DHT22;62991;50.040;18.400;2023-10-19T14:05:12;14.00;69.70
74511;DHT22;62991;50.040;18.400;2023-10-19T14:08:14;14.00;69.80
74511;DHT22;62991;50.040;18.400;2023-10-19T14:11:15;14.00;69.90
74511;DHT22;62991;50.040;18.400;2023-10-19T14:14:16;14.00;70.10
74511;DHT22;62991;50.040;18.400;2023-10-19T14:17:16;13.90;70.20
74511;DHT22;62991;50.040;18.400;2023-10-19T14:20:17;13.90;70.50
74511;DHT22;62991;50.040;18.400;2023-10-19T14:23:19;13.80;70.20
74511;DHT22;62991;50.040;18.400;2023-10-19T14:26:19;13.80;69.90
74511;DHT22;62991;50.040;18.400;2023-10-19T14:29:20;13.90;70.10
74511;DHT22;62991;50.040;18.400;2023-10-19T14:32:21;13.90;70.10
74511;DHT22;62991;50.040;18.400;2023-10-19T14:35:23;13.90;70.30
74511;DHT22;62991;50.040;18.400;2023-10-19T14:38:24;13.80;70.50
74511;DHT22;62991;50.040;18.400;2023-10-19T14:41:27;13.80;70.90
74511;DHT22;62991;50.040;18.400;2023-10-19T14:44:28;13.80;71.10
74511;DHT22;62991;50.040;18.400;2023-10-19T14:47:29;13.80;71.10
74511;DHT22;62991;50.040;18.400;2023-10-19T14:50:30;13.80;71.00
74511;DHT22;62991;50.040;18.400;2023-10-19T14:53:30;13.80;70.90
74511;DHT22;62991;50.040;18.400;2023-10-19T14:56:31;13.80;71.20
74511;DHT22;62991;50.040;18.400;2023-10-19T14:59:32;13.80;71.00
74511;DHT22;62991;50.040;18.400;2023-10-19T15:02:36;13.80;70.70
74511;DHT22;62991;50.040;18.400;2023-10-19T15:05:37;13.90;71.10
74511;DHT22;62991;50.040;18.400;2023-10-19T15:08:38;13.80;71.10
74511;DHT22;62991;50.040;18.400;2023-10-19T15:11:39;13.90;70.60
74511;DHT22;62991;50.040;18.400;2023-10-19T15:14:40;13.90;70.50
74511;DHT22;62991;50.040;18.400;2023-10-19T15:17:46;13.90;70.40
74511;DHT22;62991;50.040;18.400;2023-10-19T15:20:47;13.80;70.60
74511;DHT22;62991;50.040;18.400;2023-10-19T15:23:48;13.80;70.70
74511;DHT22;62991;50.040;18.400;2023-10-19T15:26:50;13.80;70.90
74511;DHT22;62991;50.040;18.400;2023-10-19T15:29:51;13.70;70.90
74511;DHT22;62991;50.040;18.400;2023-10-19T15:32:52;13.70;71.10
74511;DHT22;62991;50.040;18.400;2023-10-19T15:35:56;13.70;71.10
74511;DHT22;62991;50.040;18.400;2023-10-19T15:38:58;13.70;71.30
74511;DHT22;62991;50.040;18.400;2023-10-19T15:41:58;13.60;71.50
74511;DHT22;62991;50.040;18.400;2023-10-19T15:44:59;13.60;71.50
74511;DHT22;62991;50.040;18.400;2023-10-19T15:48:01;13.50;71.60
74511;DHT22;62991;50.040;18.400;2023-10-19T15:51:02;13.50;71.90
74511;DHT22;62991;50.040;18.400;2023-10-19T15:54:05;13.50;71.70
74511;DHT22;62991;50.040;18.400;2023-10-19T15:57:06;13.40;71.60
74511;DHT22;62991;50.040;18.400;2023-10-19T16:00:08;13.30;71.80
74511;DHT22;62991;50.040;18.400;2023-10-19T16:03:13;13.40;71.80
74511;DHT22;62991;50.040;18.400;2023-10-19T16:06:14;13.30;71.70
74511;DHT22;62991;50.040;18.400;2023-10-19T16:09:16;13.30;71.80
74511;DHT22;62991;50.040;18.400;2023-10-19T16:12:19;13.30;71.80
74511;DHT22;62991;50.040;18.400;2023-10-19T16:15:20;13.20;72.10
74511;DHT22;62991;50.040;18.400;2023-10-19T16:18:21;13.20;72.20
74511;DHT22;62991;50.040;18.400;2023-10-19T16:21:22;13.20;72.10
74511;DHT22;62991;50.040;18.400;2023-10-19T16:24:22;13.10;72.20
74511;DHT22;62991;50.040;18.400;2023-10-19T16:27:25;13.10;72.10
74511;DHT22;62991;50.040;18.400;2023-10-19T16:30:27;13.20;72.00
74511;DHT22;62991;50.040;18.400;2023-10-19T16:33:32;13.20;72.10
74511;DHT22;62991;50.040;18.400;2023-10-19T16:36:33;13.20;71.90
74511;DHT22;62991;50.040;18.400;2023-10-19T16:39:34;13.10;72.20
74511;DHT22;62991;50.040;18.400;2023-10-19T16:42:34;13.10;72.30
74511;DHT22;62991;50.040;18.400;2023-10-19T16:45:35;13.10;72.40
74511;DHT22;62991;50.040;18.400;2023-10-19T16:48:39;13.10;72.40
74511;DHT22;62991;50.040;18.400;2023-10-19T16:51:40;13.10;72.20
74511;DHT22;62991;50.040;18.400;2023-10-19T16:54:41;13.10;72.30
74511;DHT22;62991;50.040;18.400;2023-10-19T16:57:42;13.10;72.40
74511;DHT22;62991;50.040;18.400;2023-10-19T17:00:42;13.10;72.50
74511;DHT22;62991;50.040;18.400;2023-10-19T17:03:45;13.20;72.60
74511;DHT22;62991;50.040;18.400;2023-10-19T17:06:46;13.10;72.80
74511;DHT22;62991;50.040;18.400;2023-10-19T17:09:47;13.10;72.80
74511;DHT22;62991;50.040;18.400;2023-10-19T17:12:47;13.10;72.50
74511;DHT22;62991;50.040;18.400;2023-10-19T17:15:48;13.10;72.80
74511;DHT22;62991;50.040;18.400;2023-10-19T17:18:49;13.10;72.70
74511;DHT22;62991;50.040;18.400;2023-10-19T17:21:50;13.10;72.60
74511;DHT22;62991;50.040;18.400;2023-10-19T17:24:51;13.10;72.60
74511;DHT22;62991;50.040;18.400;2023-10-19T17:27:52;13.10;72.60
74511;DHT22;62991;50.040;18.400;2023-10-19T17:30:52;13.10;72.60
74511;DHT22;62991;50.040;18.400;2023-10-19T17:33:53;13.10;72.70
74511;DHT22;62991;50.040;18.400;2023-10-19T17:36:55;13.10;72.90
74511;DHT22;62991;50.040;18.400;2023-10-19T17:39:56;13.10;72.90
74511;DHT22;62991;50.040;18.400;2023-10-19T17:42:56;13.10;72.90
74511;DHT22;62991;50.040;18.400;2023-10-19T17:45:57;13.10;72.90
74511;DHT22;62991;50.040;18.400;2023-10-19T17:48:58;13.10;73.00
74511;DHT22;62991;50.040;18.400;2023-10-19T17:51:59;13.10;73.10
74511;DHT22;62991;50.040;18.400;2023-10-19T17:55:00;13.10;73.10
74511;DHT22;62991;50.040;18.400;2023-10-19T17:58:00;13.10;73.20
74511;DHT22;62991;50.040;18.400;2023-10-19T18:01:04;13.10;73.20
74511;DHT22;62991;50.040;18.400;2023-10-19T18:04:05;13.00;73.40
74511;DHT22;62991;50.040;18.400;2023-10-19T18:07:08;13.00;73.90
74511;DHT22;62991;50.040;18.400;2023-10-19T18:10:10;12.90;73.80
74511;DHT22;62991;50.040;18.400;2023-10-19T18:13:16;13.00;73.70
74511;DHT22;62991;50.040;18.400;2023-10-19T18:16:17;13.00;73.70
74511;DHT22;62991;50.040;18.400;2023-10-19T18:19:17;13.00;73.60
74511;DHT22;62991;50.040;18.400;2023-10-19T18:22:18;13.00;73.70
74511;DHT22;62991;50.040;18.400;2023-10-19T18:25:19;13.00;73.60
74511;DHT22;62991;50.040;18.400;2023-10-19T18:28:24;13.10;73.60
74511;DHT22;62991;50.040;18.400;2023-10-19T18:31:24;13.10;73.60
74511;DHT22;62991;50.040;18.400;2023-10-19T18:34:25;13.10;73.40
74511;DHT22;62991;50.040;18.400;2023-10-19T18:37:26;13.10;73.20
74511;DHT22;62991;50.040;18.400;2023-10-19T18:40:27;13.10;73.00
74511;DHT22;62991;50.040;18.400;2023-10-19T18:43:30;13.20;72.90
74511;DHT22;62991;50.040;18.400;2023-10-19T18:46:31;13.20;73.00
74511;DHT22;62991;50.040;18.400;2023-10-19T18:49:32;13.10;72.70
74511;DHT22;62991;50.040;18.400;2023-10-19T18:52:35;13.10;72.70
74511;DHT22;62991;50.040;18.400;2023-10-19T18:55:35;13.10;72.90
74511;DHT22;62991;50.040;18.400;2023-10-19T18:58:36;13.10;72.60
74511;DHT22;62991;50.040;18.400;2023-10-19T19:01:37;13.10;72.80
74511;DHT22;62991;50.040;18.400;2023-10-19T19:04:38;13.00;72.90